Time;durP1;ratioP1;P1;durP2;ratioP2;P2;SDS_P1;SDS_P2;PMS_P1;PMS_P2;Temp;Humidity;BMP_temperature;BMP_pressure;BME280_temperature;BME280_humidity;BME280_pressure;Samples;Min_cycle;Max_cycle;Signal;HPM_P1;HPM_P2
2022/10/19 00:01:02;;;;;;;6.65;1.23;;;11.80;85.00;;;;;;5051984;28;20332;-48
2022/10/19 00:03:28;;;;;;;6.22;1.05;;;11.80;84.90;;;;;;5055640;28;20032;-46
2022/10/19 00:05:55;;;;;;;3.53;1.02;;;11.80;84.80;;;;;;5038351;28;20459;-47
2022/10/19 00:08:23;;;;;;;8.85;1.42;;;11.90;84.90;;;;;;5054978;28;20208;-46
2022/10/19 00:10:49;;;;;;;8.07;1.33;;;11.90;85.00;;;;;;5056883;28;20315;-46
2022/10/19 00:13:16;;;;;;;6.55;1.90;;;11.90;85.10;;;;;;5051210;28;20068;-46
2022/10/19 00:15:44;;;;;;;7.95;1.48;;;11.90;85.40;;;;;;5036670;28;20336;-46
2022/10/19 00:18:10;;;;;;;8.52;1.40;;;11.90;85.60;;;;;;5019462;28;20164;-46
2022/10/19 00:20:38;;;;;;;4.70;0.88;;;11.90;85.80;;;;;;5055454;28;20400;-47
2022/10/19 00:23:05;;;;;;;6.95;1.58;;;11.90;86.00;;;;;;5056596;28;20104;-48
2022/10/19 00:25:32;;;;;;;8.73;1.65;;;11.90;86.10;;;;;;5037896;28;20023;-46
2022/10/19 00:28:00;;;;;;;7.10;1.25;;;12.00;86.40;;;;;;5055775;28;20053;-48
2022/10/19 00:30:26;;;;;;;9.70;1.85;;;12.00;86.50;;;;;;5056452;28;20104;-46
2022/10/19 00:32:53;;;;;;;7.75;1.60;;;12.00;86.60;;;;;;5056322;28;20087;-47
2022/10/19 00:35:20;;;;;;;9.30;1.65;;;12.00;86.50;;;;;;5054375;28;20044;-50
2022/10/19 00:37:47;;;;;;;13.70;2.10;;;12.00;86.60;;;;;;5056349;28;20029;-46
2022/10/19 00:40:14;;;;;;;12.40;3.42;;;12.00;86.60;;;;;;5038721;28;20033;-46
2022/10/19 00:42:41;;;;;;;9.90;2.03;;;12.00;86.60;;;;;;5056231;28;20025;-48
2022/10/19 00:45:14;;;;;;;10.55;2.08;;;12.00;86.60;;;;;;5054464;28;20079;-47
2022/10/19 00:47:44;;;;;;;17.85;3.88;;;11.90;86.70;;;;;;5054993;28;20519;-47
2022/10/19 00:50:13;;;;;;;10.05;3.03;;;11.90;86.60;;;;;;5054787;28;20107;-49
2022/10/19 00:52:40;;;;;;;13.57;2.13;;;11.90;85.90;;;;;;5037053;28;20033;-50
2022/10/19 00:55:10;;;;;;;7.93;2.20;;;11.80;84.80;;;;;;5055687;28;20458;-47
2022/10/19 00:57:39;;;;;;;10.63;2.72;;;11.70;83.40;;;;;;5055891;28;20108;-48
2022/10/19 01:00:07;;;;;;;12.40;2.40;;;11.70;82.50;;;;;;5037744;28;20052;-46
2022/10/19 01:02:35;;;;;;;16.40;2.55;;;11.70;82.00;;;;;;5055875;28;20025;-50
2022/10/19 01:05:03;;;;;;;12.68;2.10;;;11.70;81.80;;;;;;5054851;28;20358;-50
2022/10/19 01:07:33;;;;;;;15.95;2.45;;;11.80;81.80;;;;;;5043691;28;20120;-51
2022/10/19 01:10:00;;;;;;;8.32;2.75;;;11.80;81.60;;;;;;5056005;28;20124;-47
2022/10/19 01:13:19;;;;;;;17.88;2.90;;;11.80;81.30;;;;;;5038156;28;20063;-47
2022/10/19 01:15:54;;;;;;;16.67;3.10;;;11.80;81.30;;;;;;5031068;28;20045;-47
2022/10/19 01:18:31;;;;;;;11.02;2.67;;;11.80;80.90;;;;;;5054510;28;20028;-47
2022/10/19 01:21:23;;;;;;;13.82;2.92;;;11.80;81.00;;;;;;5034540;28;20059;-46
2022/10/19 01:24:25;;;;;;;16.63;3.13;;;11.70;81.50;;;;;;5035452;28;20030;-46
2022/10/19 01:27:23;;;;;;;7.63;1.88;;;11.60;81.10;;;;;;5035199;28;20021;-50
2022/10/19 01:30:28;;;;;;;19.20;5.43;;;11.50;81.10;;;;;;5012594;28;20037;-48
2022/10/19 01:33:12;;;;;;;9.48;2.20;;;11.50;81.40;;;;;;5053743;28;20024;-49
2022/10/19 01:35:53;;;;;;;11.45;2.38;;;11.50;81.60;;;;;;5054801;28;20036;-47
2022/10/19 01:38:27;;;;;;;22.45;3.17;;;11.40;81.90;;;;;;5053623;28;20025;-47
2022/10/19 01:41:09;;;;;;;10.80;2.35;;;11.30;82.10;;;;;;5054189;28;20717;-46
2022/10/19 01:44:00;;;;;;;12.05;2.35;;;11.40;82.40;;;;;;5053291;28;20111;-46
2022/10/19 01:46:48;;;;;;;11.60;2.03;;;11.30;81.70;;;;;;5054786;28;20044;-46
2022/10/19 01:49:38;;;;;;;12.63;2.17;;;11.30;81.30;;;;;;5044039;28;20029;-47
2022/10/19 01:52:08;;;;;;;11.70;2.28;;;11.40;80.80;;;;;;5054603;28;20028;-49
2022/10/19 01:54:41;;;;;;;11.38;2.65;;;11.40;80.80;;;;;;5054831;28;20048;-47
2022/10/19 01:57:11;;;;;;;16.60;2.20;;;11.40;80.90;;;;;;5036611;28;20032;-48
2022/10/19 01:59:38;;;;;;;9.93;1.98;;;11.50;80.90;;;;;;5036006;28;20040;-49
2022/10/19 02:02:11;;;;;;;11.63;1.90;;;11.50;80.80;;;;;;5037280;28;20044;-49
2022/10/19 02:04:39;;;;;;;10.13;2.00;;;11.50;80.80;;;;;;5053886;28;20028;-48
2022/10/19 02:07:09;;;;;;;14.25;2.10;;;11.50;80.90;;;;;;5054798;28;20036;-48
2022/10/19 02:09:35;;;;;;;9.13;1.95;;;11.60;81.30;;;;;;5053207;28;20032;-45
2022/10/19 02:12:06;;;;;;;12.60;2.53;;;11.60;81.10;;;;;;5054604;28;20035;-48
2022/10/19 02:14:38;;;;;;;13.48;2.22;;;11.60;80.80;;;;;;5053550;28;20029;-46
2022/10/19 02:17:13;;;;;;;13.10;2.30;;;11.70;80.60;;;;;;5036900;28;20043;-49
2022/10/19 02:19:40;;;;;;;12.98;2.38;;;11.70;80.60;;;;;;5034687;28;20462;-46
2022/10/19 02:22:07;;;;;;;13.90;2.42;;;11.70;79.90;;;;;;5053428;28;20047;-51
2022/10/19 02:24:34;;;;;;;9.23;2.25;;;11.70;79.10;;;;;;5052492;28;20025;-48
2022/10/19 02:27:04;;;;;;;10.40;2.55;;;11.70;79.10;;;;;;5053886;28;20029;-46
2022/10/19 02:29:32;;;;;;;5.45;1.70;;;11.70;78.80;;;;;;5034572;28;20021;-47
2022/10/19 02:32:00;;;;;;;12.10;2.28;;;11.70;77.40;;;;;;5053165;28;20047;-45
2022/10/19 02:34:27;;;;;;;10.73;1.70;;;11.70;77.20;;;;;;5034835;28;20074;-46
2022/10/19 02:36:54;;;;;;;13.25;2.30;;;11.70;76.30;;;;;;5053536;28;20021;-46
2022/10/19 02:39:21;;;;;;;8.45;1.90;;;11.80;76.60;;;;;;5052563;28;20047;-46
2022/10/19 02:41:53;;;;;;;13.63;2.28;;;11.80;76.00;;;;;;5036471;28;20025;-49
2022/10/19 02:44:28;;;;;;;12.40;2.70;;;11.80;76.50;;;;;;5053802;28;20039;-47
2022/10/19 02:47:27;;;;;;;8.88;1.58;;;11.80;76.80;;;;;;5053290;28;20681;-49
2022/10/19 02:49:54;;;;;;;12.37;2.03;;;11.80;77.20;;;;;;5048725;28;20062;-46
2022/10/19 02:52:21;;;;;;;8.98;1.60;;;11.80;77.80;;;;;;5053773;28;20333;-46
2022/10/19 02:54:48;;;;;;;9.55;2.85;;;11.80;78.10;;;;;;5052731;28;20104;-47
2022/10/19 02:57:33;;;;;;;7.15;2.25;;;11.80;78.50;;;;;;5052615;28;20324;-46
2022/10/19 03:00:00;;;;;;;9.20;2.45;;;11.70;78.70;;;;;;5036172;28;20040;-48
2022/10/19 03:02:27;;;;;;;5.20;1.30;;;11.70;78.80;;;;;;5051706;28;20036;-46
2022/10/19 03:04:53;;;;;;;11.23;1.98;;;11.70;78.80;;;;;;5052436;28;20039;-50
2022/10/19 03:07:21;;;;;;;11.20;2.05;;;11.70;79.10;;;;;;5052291;28;20104;-47
2022/10/19 03:09:48;;;;;;;10.48;1.90;;;11.70;79.10;;;;;;5053489;28;20043;-48
2022/10/19 03:12:17;;;;;;;10.18;1.90;;;11.70;79.30;;;;;;5053496;28;20331;-46
2022/10/19 03:14:44;;;;;;;11.35;2.55;;;11.70;79.40;;;;;;5034510;28;20068;-47
2022/10/19 03:17:11;;;;;;;12.10;2.03;;;11.70;79.00;;;;;;5052608;28;20412;-49
2022/10/19 03:19:39;;;;;;;9.10;3.03;;;11.70;79.30;;;;;;5052287;28;20052;-49
2022/10/19 03:22:06;;;;;;;8.23;1.60;;;11.70;79.50;;;;;;5052404;28;20029;-46
2022/10/19 03:24:33;;;;;;;8.43;1.30;;;11.70;79.60;;;;;;5053021;28;20029;-47
2022/10/19 03:27:00;;;;;;;7.00;1.40;;;11.70;79.60;;;;;;5051113;28;20056;-47
2022/10/19 03:29:26;;;;;;;8.50;1.92;;;11.70;80.20;;;;;;5053155;28;20129;-47
2022/10/19 03:31:53;;;;;;;9.30;1.60;;;11.70;80.50;;;;;;5051208;28;20060;-47
2022/10/19 03:34:20;;;;;;;6.72;1.90;;;11.70;80.40;;;;;;5052398;28;20041;-46
2022/10/19 03:36:48;;;;;;;12.00;2.83;;;11.70;80.00;;;;;;5046444;28;20025;-46
2022/10/19 03:39:15;;;;;;;7.32;1.77;;;11.70;80.00;;;;;;5015878;28;20021;-48
2022/10/19 03:41:42;;;;;;;8.75;1.67;;;11.70;80.30;;;;;;5032777;28;20025;-48
2022/10/19 03:44:10;;;;;;;7.80;1.70;;;11.70;80.70;;;;;;5039641;28;20043;-47
2022/10/19 03:46:37;;;;;;;8.60;1.83;;;11.70;80.30;;;;;;5028528;28;20045;-49
2022/10/19 03:49:04;;;;;;;9.60;2.00;;;11.70;80.40;;;;;;5022208;28;20059;-47
2022/10/19 03:51:35;;;;;;;11.35;2.28;;;11.70;80.40;;;;;;5035675;28;20041;-47
2022/10/19 03:54:04;;;;;;;9.07;1.80;;;11.70;80.50;;;;;;5042163;28;20025;-49
2022/10/19 03:56:32;;;;;;;7.65;1.30;;;11.70;80.80;;;;;;5052715;28;20504;-47
2022/10/19 03:58:59;;;;;;;7.75;2.35;;;11.70;80.50;;;;;;5052969;28;20099;-46
2022/10/19 04:01:35;;;;;;;9.13;1.60;;;11.70;79.60;;;;;;5019077;28;20026;-45
2022/10/19 04:04:05;;;;;;;9.00;1.55;;;11.70;78.90;;;;;;5031659;28;20079;-48
2022/10/19 04:06:36;;;;;;;;;;;11.80;78.10;;;;;;5023668;28;20481;-48
2022/10/19 04:09:05;;;;;;;8.75;1.65;;;11.80;77.90;;;;;;5024935;28;19947;-49
2022/10/19 04:11:33;;;;;;;8.20;1.90;;;11.90;78.20;;;;;;5032621;28;20025;-46
2022/10/19 04:14:01;;;;;;;7.65;1.70;;;11.90;78.40;;;;;;5030813;28;20064;-46
2022/10/19 04:16:31;;;;;;;5.45;1.20;;;11.90;78.20;;;;;;5026834;28;20058;-46
2022/10/19 04:18:58;;;;;;;5.63;1.60;;;11.90;78.30;;;;;;5031961;28;20087;-46
2022/10/19 04:21:43;;;;;;;10.23;2.22;;;11.90;78.70;;;;;;5021388;28;20371;-46
2022/10/19 04:24:29;;;;;;;10.05;2.40;;;11.90;78.80;;;;;;5034531;28;20493;-48
2022/10/19 04:26:56;;;;;;;10.32;1.77;;;11.90;79.20;;;;;;5052555;28;20033;-45
2022/10/19 04:29:25;;;;;;;11.27;2.10;;;11.90;79.30;;;;;;5035800;28;20029;-47
2022/10/19 04:31:54;;;;;;;8.20;2.08;;;11.90;79.60;;;;;;5011993;28;20034;-48
2022/10/19 04:34:23;;;;;;;8.65;2.15;;;11.90;80.40;;;;;;5052824;28;20041;-49
2022/10/19 04:36:50;;;;;;;8.32;1.77;;;11.90;80.10;;;;;;5016504;28;20501;-49
2022/10/19 04:39:16;;;;;;;9.32;1.73;;;11.90;79.50;;;;;;5032138;28;20115;-46
2022/10/19 04:41:43;;;;;;;13.75;2.42;;;11.90;79.50;;;;;;5031059;28;20026;-46
2022/10/19 04:44:10;;;;;;;9.82;2.35;;;11.90;79.80;;;;;;5032496;28;20393;-48
2022/10/19 04:46:37;;;;;;;15.55;2.97;;;11.90;80.30;;;;;;5044477;28;20358;-46
2022/10/19 04:49:05;;;;;;;9.10;2.35;;;11.90;79.90;;;;;;5035893;28;20052;-46
2022/10/19 04:51:35;;;;;;;13.10;2.42;;;11.90;79.30;;;;;;5055183;28;20029;-49
2022/10/19 04:54:02;;;;;;;;;;;11.90;79.50;;;;;;5056539;28;20036;-48
2022/10/19 04:56:31;;;;;;;9.50;1.77;;;12.00;80.00;;;;;;5034052;28;19999;-46
2022/10/19 04:58:59;;;;;;;;;;;12.00;79.80;;;;;;5036317;28;20108;-46
2022/10/19 05:01:28;;;;;;;7.75;1.50;;;11.90;79.60;;;;;;5035921;28;19932;-47
2022/10/19 05:04:00;;;;;;;9.98;1.73;;;11.90;78.90;;;;;;5036007;28;20025;-46
2022/10/19 05:06:28;;;;;;;8.90;3.70;;;11.90;79.20;;;;;;5031675;28;20442;-50
2022/10/19 05:08:58;;;;;;;10.18;2.63;;;11.90;79.30;;;;;;5037652;28;20033;-46
2022/10/19 05:11:25;;;;;;;;;;;11.90;78.60;;;;;;5054894;28;20075;-46
2022/10/19 05:13:54;;;;;;;5.65;1.23;;;11.90;77.90;;;;;;5038080;28;20007;-50
2022/10/19 05:16:23;;;;;;;12.82;1.88;;;11.90;78.00;;;;;;5054461;28;20029;-46
2022/10/19 05:18:52;;;;;;;5.95;1.73;;;11.90;78.70;;;;;;5017943;28;20029;-51
2022/10/19 05:21:20;;;;;;;4.43;1.17;;;11.90;79.30;;;;;;5045664;28;20035;-46
2022/10/19 05:23:53;;;;;;;7.53;1.90;;;11.90;79.70;;;;;;5054179;28;20041;-46
2022/10/19 05:26:21;;;;;;;8.75;2.60;;;11.90;80.10;;;;;;5038127;28;20025;-49
2022/10/19 05:28:55;;;;;;;9.88;2.00;;;11.90;80.30;;;;;;5055279;28;20052;-48
2022/10/19 05:31:22;;;;;;;7.97;1.73;;;11.90;80.50;;;;;;5053140;28;20128;-47
2022/10/19 05:33:48;;;;;;;15.45;2.83;;;11.90;80.00;;;;;;5036611;28;20040;-49
2022/10/19 05:36:20;;;;;;;14.45;3.10;;;11.90;80.40;;;;;;5055317;28;20043;-46
2022/10/19 05:38:51;;;;;;;12.35;2.67;;;11.90;80.40;;;;;;5053896;28;20099;-46
2022/10/19 05:41:22;;;;;;;9.30;2.35;;;11.90;80.30;;;;;;5054186;28;20380;-46
2022/10/19 05:43:55;;;;;;;8.18;2.92;;;11.90;80.40;;;;;;5053688;28;20032;-47
2022/10/19 05:46:23;;;;;;;7.95;2.22;;;11.80;80.20;;;;;;5033403;28;20421;-47
2022/10/19 05:48:50;;;;;;;12.57;2.70;;;11.90;80.20;;;;;;5033612;28;20101;-47
2022/10/19 05:51:19;;;;;;;7.85;1.75;;;11.80;79.90;;;;;;5035228;28;20113;-46
2022/10/19 05:53:46;;;;;;;8.20;1.90;;;11.90;79.60;;;;;;5003002;28;20036;-47
2022/10/19 05:56:16;;;;;;;8.45;2.00;;;11.90;79.10;;;;;;5007606;28;20080;-51
2022/10/19 05:58:43;;;;;;;;;;;11.90;79.20;;;;;;5046505;28;20032;-46
2022/10/19 06:01:10;;;;;;;11.23;2.55;;;11.90;79.30;;;;;;5053831;28;20260;-46
2022/10/19 06:03:40;;;;;;;6.97;1.60;;;11.90;79.20;;;;;;5049854;28;20017;-46
2022/10/19 06:06:07;;;;;;;;;;;11.90;79.80;;;;;;5027600;28;20052;-50
2022/10/19 06:08:37;;;;;;;13.07;2.00;;;11.90;79.70;;;;;;5049467;28;20303;-46
2022/10/19 06:11:16;;;;;;;5.40;1.02;;;11.90;79.90;;;;;;5032993;28;20021;-48
2022/10/19 06:13:43;;;;;;;13.10;3.03;;;11.90;80.10;;;;;;5049511;28;20101;-49
2022/10/19 06:16:11;;;;;;;19.65;3.38;;;11.90;80.50;;;;;;5033287;28;20307;-49
2022/10/19 06:18:41;;;;;;;19.33;2.78;;;11.90;81.00;;;;;;5012776;28;20040;-46
2022/10/19 06:21:10;;;;;;;19.80;2.20;;;11.90;81.50;;;;;;4998637;28;20034;-48
2022/10/19 06:23:41;;;;;;;13.48;2.15;;;11.90;81.80;;;;;;5014755;28;20058;-46
2022/10/19 06:26:11;;;;;;;7.90;1.88;;;11.90;82.10;;;;;;5014697;28;20022;-48
2022/10/19 06:28:39;;;;;;;7.38;2.00;;;11.90;81.10;;;;;;5028493;28;20029;-47
2022/10/19 06:31:05;;;;;;;9.55;2.97;;;11.90;79.60;;;;;;5034214;28;20029;-47
2022/10/19 06:33:40;;;;;;;10.55;1.70;;;11.90;79.10;;;;;;5025732;28;20371;-47
2022/10/19 06:36:16;;;;;;;5.38;1.63;;;11.90;79.00;;;;;;5033586;28;20037;-47
2022/10/19 06:38:43;;;;;;;7.43;1.30;;;12.00;79.30;;;;;;5033284;28;20048;-51
2022/10/19 06:41:10;;;;;;;5.65;1.25;;;12.00;79.30;;;;;;5053421;28;20033;-48
2022/10/19 06:43:38;;;;;;;9.23;1.65;;;12.10;79.40;;;;;;5033301;28;20699;-46
2022/10/19 06:46:10;;;;;;;6.50;1.10;;;12.10;79.60;;;;;;5040755;28;20049;-47
2022/10/19 06:48:40;;;;;;;11.55;2.05;;;12.10;79.60;;;;;;5054047;28;20031;-46
2022/10/19 06:51:06;;;;;;;7.43;1.23;;;12.10;78.70;;;;;;5052663;28;20041;-47
2022/10/19 06:53:35;;;;;;;12.13;2.88;;;12.10;79.00;;;;;;5052316;28;20044;-46
2022/10/19 06:56:04;;;;;;;8.25;1.58;;;12.20;79.20;;;;;;5052836;28;20037;-46
2022/10/19 06:58:35;;;;;;;11.82;1.88;;;12.20;79.30;;;;;;5052636;28;20062;-46
2022/10/19 07:01:01;;;;;;;10.55;1.48;;;12.30;79.60;;;;;;5053027;28;20021;-46
2022/10/19 07:03:28;;;;;;;7.25;1.75;;;12.30;79.70;;;;;;5052039;28;20025;-48
2022/10/19 07:05:59;;;;;;;8.88;1.77;;;12.40;79.90;;;;;;5051608;28;20380;-46
2022/10/19 07:08:29;;;;;;;11.23;1.60;;;12.30;79.60;;;;;;5033308;28;20036;-48
2022/10/19 07:11:00;;;;;;;8.45;1.70;;;12.40;79.20;;;;;;5035133;28;20029;-48
2022/10/19 07:13:28;;;;;;;11.98;2.60;;;12.40;79.60;;;;;;5034950;28;20464;-45
2022/10/19 07:16:15;;;;;;;8.27;2.53;;;12.40;80.00;;;;;;5051921;28;20025;-47
2022/10/19 07:18:42;;;;;;;10.68;3.38;;;12.50;79.90;;;;;;5052478;28;20036;-48
2022/10/19 07:21:12;;;;;;;7.68;2.42;;;12.50;79.70;;;;;;5051776;28;20370;-49
2022/10/19 07:23:46;;;;;;;7.25;2.20;;;12.60;79.70;;;;;;5052034;28;20052;-49
2022/10/19 07:26:17;;;;;;;4.95;1.00;;;12.60;79.90;;;;;;5035761;28;20065;-48
2022/10/19 07:28:46;;;;;;;8.13;2.25;;;12.60;79.70;;;;;;5053323;28;20443;-47
2022/10/19 07:31:16;;;;;;;7.00;1.77;;;12.70;80.10;;;;;;5052143;28;20079;-47
2022/10/19 07:33:44;;;;;;;8.50;1.85;;;12.80;80.50;;;;;;5026546;28;20033;-45
2022/10/19 07:36:12;;;;;;;6.85;2.55;;;12.90;80.70;;;;;;5052970;28;20033;-46
2022/10/19 07:38:39;;;;;;;6.88;2.28;;;12.90;81.10;;;;;;5052345;28;20980;-46
2022/10/19 07:41:12;;;;;;;10.65;2.63;;;12.90;81.00;;;;;;5047015;28;20061;-45
2022/10/19 07:43:42;;;;;;;8.90;2.15;;;13.00;81.40;;;;;;5016681;28;20480;-47
2022/10/19 07:46:13;;;;;;;9.77;2.38;;;13.00;81.70;;;;;;5048038;28;20107;-47
2022/10/19 07:48:38;;;;;;;7.75;2.17;;;13.10;81.10;;;;;;5027087;28;20123;-46
2022/10/19 07:51:06;;;;;;;9.57;2.10;;;13.00;80.50;;;;;;5052011;28;20116;-51
2022/10/19 07:53:37;;;;;;;6.75;1.88;;;13.00;80.50;;;;;;5053037;28;20032;-46
2022/10/19 07:56:11;;;;;;;12.20;3.58;;;13.10;80.90;;;;;;5053072;28;20021;-46
2022/10/19 07:58:39;;;;;;;13.65;4.20;;;13.10;80.60;;;;;;5051929;28;20029;-47
2022/10/19 08:01:15;;;;;;;14.23;5.05;;;13.10;80.90;;;;;;5052045;28;20025;-49
2022/10/19 08:03:42;;;;;;;12.90;3.50;;;13.10;80.80;;;;;;5052065;28;20381;-48
2022/10/19 08:06:11;;;;;;;8.82;2.60;;;13.10;80.90;;;;;;5051786;28;20033;-48
2022/10/19 08:08:38;;;;;;;7.80;1.98;;;13.20;80.70;;;;;;5035375;28;20033;-46
2022/10/19 08:11:21;;;;;;;15.73;2.75;;;13.20;79.60;;;;;;5050713;28;20033;-46
2022/10/19 08:13:48;;;;;;;10.45;1.77;;;13.20;79.50;;;;;;5052275;28;20338;-48
2022/10/19 08:16:40;;;;;;;8.18;2.17;;;13.20;79.70;;;;;;5051511;28;20033;-48
2022/10/19 08:19:12;;;;;;;5.18;1.55;;;13.20;79.00;;;;;;5036258;28;20446;-45
2022/10/19 08:21:42;;;;;;;7.50;2.40;;;13.30;79.20;;;;;;5052839;28;20104;-47
2022/10/19 08:24:13;;;;;;;8.73;2.03;;;13.30;79.00;;;;;;5035922;28;20026;-45
2022/10/19 08:26:40;;;;;;;7.47;2.10;;;13.40;78.80;;;;;;5056486;28;20029;-48
2022/10/19 08:29:11;;;;;;;9.55;1.73;;;13.40;78.50;;;;;;5055080;28;20469;-49
2022/10/19 08:31:38;;;;;;;7.43;1.80;;;13.50;78.30;;;;;;5056331;28;20040;-49
2022/10/19 08:34:05;;;;;;;6.82;1.33;;;13.60;78.90;;;;;;5054594;28;20029;-46
2022/10/19 08:36:34;;;;;;;7.10;1.33;;;13.70;79.00;;;;;;5056261;28;20098;-47
2022/10/19 08:39:03;;;;;;;7.77;2.00;;;13.80;78.90;;;;;;5055343;28;20033;-46
2022/10/19 08:42:10;;;;;;;5.82;1.88;;;13.90;78.50;;;;;;5056505;28;20112;-49
2022/10/19 08:45:02;;;;;;;11.68;2.20;;;14.00;78.70;;;;;;5015921;28;20378;-51
2022/10/19 08:47:40;;;;;;;8.57;2.00;;;14.10;78.70;;;;;;5054741;28;20037;-50
2022/10/19 08:50:37;;;;;;;7.20;1.40;;;14.20;78.10;;;;;;5036133;28;20409;-48
2022/10/19 08:53:11;;;;;;;6.50;1.50;;;14.30;77.70;;;;;;5054783;28;20108;-46
2022/10/19 08:56:04;;;;;;;8.13;1.70;;;14.20;76.00;;;;;;5018321;28;20038;-50
2022/10/19 08:58:50;;;;;;;4.78;1.10;;;14.10;75.30;;;;;;5049717;28;20491;-47
2022/10/19 09:01:43;;;;;;;6.70;1.52;;;14.10;74.10;;;;;;5054735;28;20048;-46
2022/10/19 09:04:39;;;;;;;5.85;1.67;;;14.10;74.70;;;;;;5054837;28;20025;-46
2022/10/19 09:07:29;;;;;;;8.82;2.22;;;14.20;74.20;;;;;;5037414;28;20029;-46
2022/10/19 09:09:59;;;;;;;5.72;2.33;;;14.20;75.10;;;;;;5035973;28;20029;-46
2022/10/19 09:12:45;;;;;;;5.28;2.17;;;14.30;75.20;;;;;;5035358;28;20026;-48
2022/10/19 09:15:39;;;;;;;5.55;1.30;;;14.40;75.30;;;;;;5018226;28;20053;-49
2022/10/19 09:18:12;;;;;;;5.72;1.50;;;14.40;74.50;;;;;;5036786;28;20049;-48
2022/10/19 09:20:42;;;;;;;5.90;1.38;;;14.40;75.00;;;;;;5047333;28;20052;-46
2022/10/19 09:23:37;;;;;;;5.47;1.55;;;14.50;74.70;;;;;;5055315;28;20032;-46
2022/10/19 09:26:11;;;;;;;7.60;1.50;;;14.60;73.50;;;;;;5029047;28;20044;-47
2022/10/19 09:29:01;;;;;;;6.13;1.17;;;14.70;75.00;;;;;;5055512;28;20033;-48
2022/10/19 09:31:31;;;;;;;;;;;14.70;73.40;;;;;;5055867;28;20072;-46
2022/10/19 09:34:19;;;;;;;7.80;1.23;;;14.70;72.30;;;;;;5052035;28;19933;-47
2022/10/19 09:36:55;;;;;;;5.07;1.00;;;14.80;71.60;;;;;;5055165;28;20354;-47
2022/10/19 09:39:25;;;;;;;4.68;1.00;;;14.90;72.30;;;;;;5036546;28;20037;-49
2022/10/19 09:41:54;;;;;;;4.97;1.10;;;15.00;71.60;;;;;;5035168;28;20048;-47
2022/10/19 09:44:25;;;;;;;6.18;1.70;;;15.20;70.70;;;;;;5054971;28;20400;-46
2022/10/19 09:47:16;;;;;;;5.07;1.48;;;15.30;72.30;;;;;;5044065;28;20053;-49
2022/10/19 09:49:45;;;;;;;5.28;1.67;;;15.40;70.50;;;;;;5053479;28;20044;-49
2022/10/19 09:52:35;;;;;;;7.57;1.63;;;15.40;70.00;;;;;;5054269;28;20036;-49
2022/10/19 09:55:40;;;;;;;4.45;1.00;;;15.40;67.50;;;;;;5054954;28;20025;-49
2022/10/19 09:58:30;;;;;;;5.93;1.20;;;15.50;68.20;;;;;;5053861;28;20043;-46
2022/10/19 10:00:58;;;;;;;5.07;0.90;;;15.60;68.10;;;;;;5046780;28;20037;-47
2022/10/19 10:03:26;;;;;;;3.30;1.02;;;15.70;67.70;;;;;;5054984;28;20032;-47
2022/10/19 10:05:56;;;;;;;6.15;1.20;;;15.90;65.70;;;;;;5053592;28;20021;-47
2022/10/19 10:08:33;;;;;;;7.38;1.25;;;16.10;68.80;;;;;;5053336;28;20031;-48
2022/10/19 10:11:07;;;;;;;9.25;2.08;;;16.10;66.50;;;;;;5035614;28;20041;-47
2022/10/19 10:13:49;;;;;;;5.47;1.13;;;16.10;67.00;;;;;;5052901;28;20048;-48
2022/10/19 10:16:19;;;;;;;5.13;1.35;;;16.00;66.70;;;;;;5053338;28;20457;-46
2022/10/19 10:19:11;;;;;;;5.60;1.35;;;15.70;68.10;;;;;;5054057;28;20125;-47
2022/10/19 10:21:54;;;;;;;7.10;1.58;;;15.50;68.00;;;;;;5028738;28;20093;-47
2022/10/19 10:24:23;;;;;;;5.43;2.03;;;15.20;68.00;;;;;;5016901;28;20037;-47
2022/10/19 10:26:53;;;;;;;6.60;1.87;;;15.00;69.30;;;;;;5016287;28;20057;-46
2022/10/19 10:29:52;;;;;;;3.78;1.63;;;14.90;70.30;;;;;;5036149;28;20058;-48
2022/10/19 10:32:20;;;;;;;7.87;1.37;;;14.90;70.10;;;;;;5034113;28;20037;-46
2022/10/19 10:35:18;;;;;;;6.15;1.38;;;15.10;71.70;;;;;;5034209;28;20271;-49
2022/10/19 10:37:46;;;;;;;2.88;0.90;;;15.20;68.50;;;;;;5034337;28;20451;-48
2022/10/19 10:40:31;;;;;;;4.68;1.27;;;14.90;69.20;;;;;;5013010;28;20053;-47
2022/10/19 10:43:05;;;;;;;4.55;1.52;;;14.80;68.70;;;;;;5043176;28;20021;-50
2022/10/19 10:45:42;;;;;;;7.40;1.73;;;14.70;71.00;;;;;;5051189;28;20362;-47
2022/10/19 10:48:25;;;;;;;6.45;1.80;;;14.80;72.10;;;;;;5035276;28;20040;-47
2022/10/19 10:50:52;;;;;;;12.73;1.90;;;15.00;70.50;;;;;;5053828;28;20048;-46
2022/10/19 10:53:37;;;;;;;8.90;1.98;;;15.10;69.70;;;;;;5052893;28;20335;-46
2022/10/19 10:56:04;;;;;;;6.25;1.42;;;15.10;70.30;;;;;;5046451;28;20055;-47
2022/10/19 10:58:52;;;;;;;4.18;1.50;;;14.90;70.90;;;;;;5030553;28;20021;-49
2022/10/19 11:01:24;;;;;;;7.57;1.42;;;15.00;71.90;;;;;;5027356;28;20060;-46
2022/10/19 11:04:07;;;;;;;5.57;1.38;;;15.10;71.40;;;;;;5053419;28;20047;-46
2022/10/19 11:06:40;;;;;;;7.03;1.02;;;15.20;71.70;;;;;;5052988;28;20048;-49
2022/10/19 11:09:35;;;;;;;3.70;1.08;;;15.10;71.20;;;;;;5053513;28;20493;-49
2022/10/19 11:12:05;;;;;;;4.20;1.52;;;15.20;72.50;;;;;;5033589;28;20033;-48
2022/10/19 11:14:39;;;;;;;6.25;1.42;;;15.20;69.30;;;;;;5016202;28;20033;-51
2022/10/19 11:17:17;;;;;;;5.75;0.93;;;15.10;70.20;;;;;;5051255;28;20430;-46
2022/10/19 11:19:44;;;;;;;6.63;1.17;;;14.90;70.60;;;;;;5053010;28;20025;-46
2022/10/19 11:22:21;;;;;;;4.38;1.00;;;14.90;71.70;;;;;;5053427;28;20028;-46
2022/10/19 11:25:11;;;;;;;5.55;1.25;;;14.90;71.50;;;;;;5053141;28;20359;-47
2022/10/19 11:28:04;;;;;;;5.78;1.15;;;15.00;71.60;;;;;;5050818;28;20035;-46
2022/10/19 11:30:39;;;;;;;3.72;0.90;;;15.20;71.90;;;;;;5043808;28;20029;-51
2022/10/19 11:33:32;;;;;;;4.35;1.20;;;15.30;70.70;;;;;;5035231;28;20041;-49
2022/10/19 11:36:13;;;;;;;7.50;1.50;;;15.30;69.40;;;;;;5052049;28;20036;-51
2022/10/19 11:38:56;;;;;;;6.95;1.40;;;15.40;70.60;;;;;;5053058;28;20032;-47
2022/10/19 11:41:46;;;;;;;6.78;1.38;;;15.40;71.30;;;;;;5032537;28;20502;-49
2022/10/19 11:44:30;;;;;;;5.07;1.10;;;15.50;69.60;;;;;;5019532;28;20025;-47
2022/10/19 11:47:13;;;;;;;7.50;1.73;;;15.40;70.00;;;;;;5032965;28;20045;-49
2022/10/19 11:49:57;;;;;;;8.23;1.65;;;15.30;69.70;;;;;;5015409;28;20064;-48
2022/10/19 11:52:45;;;;;;;3.75;1.20;;;15.00;69.50;;;;;;5032750;28;20099;-49
2022/10/19 11:55:48;;;;;;;5.13;1.55;;;14.90;70.50;;;;;;5039758;28;20028;-48
2022/10/19 11:58:28;;;;;;;15.98;2.63;;;14.70;71.20;;;;;;5053384;28;20040;-47
2022/10/19 12:01:32;;;;;;;7.32;1.60;;;14.60;70.90;;;;;;5053051;28;20111;-48
2022/10/19 12:04:19;;;;;;;7.43;1.15;;;14.70;71.60;;;;;;5037021;28;20104;-49
2022/10/19 12:07:05;;;;;;;6.18;1.50;;;14.60;71.90;;;;;;5036969;28;20108;-48
2022/10/19 12:09:45;;;;;;;7.00;1.58;;;14.50;72.10;;;;;;5048092;28;20030;-50
2022/10/19 12:12:16;;;;;;;9.75;1.88;;;14.50;73.60;;;;;;5051650;28;20037;-50
2022/10/19 12:14:47;;;;;;;5.85;1.55;;;14.40;73.40;;;;;;5048000;28;20599;-47
2022/10/19 12:17:27;;;;;;;5.25;1.15;;;14.40;73.20;;;;;;5057054;28;20354;-50
2022/10/19 12:20:03;;;;;;;4.45;1.60;;;14.30;72.80;;;;;;5056401;28;20049;-46
2022/10/19 12:22:36;;;;;;;4.22;1.30;;;14.20;73.60;;;;;;5055515;28;20462;-48
2022/10/19 12:25:04;;;;;;;5.22;1.55;;;14.10;73.30;;;;;;5055889;28;20029;-48
2022/10/19 12:27:40;;;;;;;4.43;1.20;;;14.00;74.00;;;;;;5034328;28;20026;-49
2022/10/19 12:30:21;;;;;;;4.38;1.17;;;14.00;74.80;;;;;;5049993;28;20032;-48
2022/10/19 12:33:24;;;;;;;5.25;1.27;;;14.00;74.80;;;;;;5035791;28;20029;-47
2022/10/19 12:36:01;;;;;;;3.60;1.00;;;13.90;75.10;;;;;;5055480;28;20029;-46
2022/10/19 12:38:50;;;;;;;4.47;2.00;;;13.90;75.20;;;;;;5056216;28;20017;-46
2022/10/19 12:41:53;;;;;;;7.70;1.40;;;13.90;74.80;;;;;;5056243;28;20021;-48
2022/10/19 12:44:54;;;;;;;4.55;1.75;;;13.80;75.80;;;;;;5040809;28;20049;-50
2022/10/19 12:47:26;;;;;;;8.73;2.30;;;13.80;76.40;;;;;;5055988;28;20068;-48
2022/10/19 12:50:10;;;;;;;5.47;1.23;;;13.90;77.20;;;;;;5054897;28;20029;-47
2022/10/19 12:52:43;;;;;;;5.88;2.10;;;13.90;77.20;;;;;;5054888;28;20029;-45
2022/10/19 12:55:14;;;;;;;6.65;2.55;;;14.00;77.00;;;;;;5054857;28;20036;-48
2022/10/19 12:57:48;;;;;;;7.93;1.95;;;14.10;76.70;;;;;;5055183;28;20039;-46
2022/10/19 13:00:34;;;;;;;6.28;1.33;;;14.00;76.80;;;;;;5026050;28;20037;-48
2022/10/19 13:03:20;;;;;;;3.72;1.40;;;14.10;75.60;;;;;;5053635;28;20061;-46
2022/10/19 13:06:06;;;;;;;8.18;1.80;;;14.10;76.30;;;;;;5002870;28;20034;-48
2022/10/19 13:08:44;;;;;;;7.53;1.70;;;14.20;76.20;;;;;;5035067;28;20026;-47
2022/10/19 13:11:15;;;;;;;6.20;1.90;;;14.10;76.00;;;;;;5050255;28;20036;-49
2022/10/19 13:13:57;;;;;;;5.82;1.50;;;14.20;76.00;;;;;;5054102;28;20128;-46
2022/10/19 13:16:55;;;;;;;7.65;1.90;;;14.20;76.30;;;;;;5023450;28;20026;-46
2022/10/19 13:19:25;;;;;;;6.82;2.20;;;14.20;76.10;;;;;;5045719;28;20041;-47
2022/10/19 13:22:20;;;;;;;5.47;1.80;;;14.20;75.90;;;;;;5035803;28;20156;-47